Oakland, NJ (07436)

2:07 PM EST on March 01, 2017 (GMT -0500)
ME3330 | | Change Station
Active Advisory: Wind Advisory

Elev 275 ft 41.01 °N, 74.27 °W | Updated 38 minutes ago

Overcast
Overcast
58.0 °F
Feels Like 58.0 °F
N
0.0
Wind Variable Wind from South

Today
High -- | Low -- °F
--% Chance of Precip.
Yesterday
High -- | Low -- °F
Precip. -- in
Pressure 29.57 in
Visibility 10.0 miles
Clouds Overcast 2000 ft
Dew Point 57 °F
Humidity 96%
Rainfall 0.21 in
Snow Depth Not available.
6:30 AM 5:48 PM
Waxing Crescent, 12% visible
METAR KCDW 011853Z 24007G14KT 10SM OVC020 18/15 A2955 RMK AO2 SLP012 T01830150
Pressure 29.57 in
Visibility 10.0 miles
Clouds Overcast 2000 ft
Dew Point 57 °F
Humidity 96%
Rainfall 0.21 in
Snow Depth Not available.
6:30 AM 5:48 PM
Waxing Crescent, 12% visible
METAR KCDW 011853Z 24007G14KT 10SM OVC020 18/15 A2955 RMK AO2 SLP012 T01830150

Get Your Daily Forecast Email!

Thanks for signing up!

Be on the lookout for a verification email in your inbox.

You'll start receiving the daily forecast at 8 AM.

×

10-Day Weather Forecast

Almanac

Astronomy

Mar. 01, 2017 Rise Set
Actual Time
Civil Twilight
Nautical Twilight
Astronomical Twilight
Moon
Length of Visible Light
Length of Day
Tomorrow will be .
, % of the Moon is Illuminated

Today's Extremes

State Highs State Lows

Community

WunderPhotos

Upload Photos

1,962,540 photos uploaded!

WunderBlog® & News

Nearby

Air Quality

  Air Quality AQ Index Pollutant
Not available.

Snow Depth

Station Depth Elevation

Earthquake Activity

City Distance Mag. Time & Date
Minimum magnitude displayed is 2.5.

Coastal Water Temperatures

Place Temperature

Stations

Nearby Weather Stations

Station Location Temp. Windchill Dew Point Humidity Wind Precip. Elev Updated Type
                   

Watches & Warnings

Wind Advisory
Issued: 12:05 PM EST Mar. 1, 2017 – National Weather Service

... Wind Advisory remains in effect from 1 am to 6 PM EST
Thursday...

* winds... west 15 to 25 mph with gusts 45 to 50 mph.

* Timing... late tonight and Thursday, with the strongest winds
most likely during Thursday morning.

* Impacts... gusty winds will blow around unsecured objects. Tree
limbs could be blown down and a few power outages may result.
Difficult.

Precautionary/preparedness actions...

A Wind Advisory is issued when sustained winds of 31 to 39 mph...
or gusts of 46 to 57 mph... are expected or occurring. Winds this
strong can make driving difficult... especially for high profile
vehicles. Use extra caution.